CYBB

Pelly Bay Airport

Pelly Bay, Canada
METAR CYBB 100000Z 04004KT 340V050 15SM FEW100 M25/M29 A3013 RMK AC2 -21.9/-27.9/0.0/14/HARD PACK/LAST STFD OBS/NXT/101300Z SLP206
Observed Flight Rules
Dec-10 @ 00:00 UTC (8 hours ago) Visual Flight Rules
Wind Visibility Clouds
40° at 4 knots 15 miles
  • Few at 10,000' AGL
Temperatures Readings
Current -25°C / -13°F
Dewpoint -29°C / -20°F
Humidity 69%
Altimeter 30.13" Hg
Pressure 1020.6 hPa
Elevation 15
METAR CYBB 100000Z 04004KT 340V050 15SM FEW100 M25/M29 A3013 RMK AC2 -21.9/-27.9/0.0/14/HARD PACK/LAST STFD OBS/NXT/101300Z SLP206
Observed Flight Rules
Dec-10 @ 00:00 UTC
(8 hours ago)
VFR
Wind Visibility
40° at 4 knots 15 miles
Clouds
  • Few at 10,000' AGL
Temperature Dewpoint
-25°C / -13°F -29°C / -20°F
Humidity Altimeter Pressure
69% 30.13" Hg 1020.6 hPa